sensor_id;sensor_type;location;lat;lon;timestamp;temperature;humidity
63313;DHT22;49442;45.640;13.812;2024-01-15T00:02:10;5.80;99.90
63313;DHT22;49442;45.640;13.812;2024-01-15T00:04:39;5.80;99.90
63313;DHT22;49442;45.640;13.812;2024-01-15T00:07:08;5.80;99.90
63313;DHT22;49442;45.640;13.812;2024-01-15T00:09:35;5.80;99.90
63313;DHT22;49442;45.640;13.812;2024-01-15T00:12:01;5.80;99.90
63313;DHT22;49442;45.640;13.812;2024-01-15T00:14:27;5.80;99.90
63313;DHT22;49442;45.640;13.812;2024-01-15T00:16:53;5.80;99.90
63313;DHT22;49442;45.640;13.812;2024-01-15T00:19:21;5.70;99.90
63313;DHT22;49442;45.640;13.812;2024-01-15T00:21:47;5.70;99.90
63313;DHT22;49442;45.640;13.812;2024-01-15T00:24:13;5.70;99.90
63313;DHT22;49442;45.640;13.812;2024-01-15T00:26:39;5.70;99.90
63313;DHT22;49442;45.640;13.812;2024-01-15T00:29:07;5.70;99.90
63313;DHT22;49442;45.640;13.812;2024-01-15T00:31:33;5.70;99.90
63313;DHT22;49442;45.640;13.812;2024-01-15T00:33:59;5.70;99.90
63313;DHT22;49442;45.640;13.812;2024-01-15T00:36:24;5.70;99.90
63313;DHT22;49442;45.640;13.812;2024-01-15T00:38:50;5.70;99.90
63313;DHT22;49442;45.640;13.812;2024-01-15T00:41:17;5.70;99.90
63313;DHT22;49442;45.640;13.812;2024-01-15T00:43:44;5.70;99.90
63313;DHT22;49442;45.640;13.812;2024-01-15T00:46:11;5.70;99.90
63313;DHT22;49442;45.640;13.812;2024-01-15T00:48:37;5.70;99.90
63313;DHT22;49442;45.640;13.812;2024-01-15T00:51:04;5.70;99.90
63313;DHT22;49442;45.640;13.812;2024-01-15T00:53:30;5.70;99.90
63313;DHT22;49442;45.640;13.812;2024-01-15T00:55:56;5.70;99.90
63313;DHT22;49442;45.640;13.812;2024-01-15T00:58:22;5.70;99.90
63313;DHT22;49442;45.640;13.812;2024-01-15T01:00:48;5.70;99.90
63313;DHT22;49442;45.640;13.812;2024-01-15T01:03:13;5.70;99.90
63313;DHT22;49442;45.640;13.812;2024-01-15T01:05:39;5.70;99.90
63313;DHT22;49442;45.640;13.812;2024-01-15T01:08:05;5.70;99.90
63313;DHT22;49442;45.640;13.812;2024-01-15T01:10:31;5.80;99.90
63313;DHT22;49442;45.640;13.812;2024-01-15T01:12:56;5.70;99.90
63313;DHT22;49442;45.640;13.812;2024-01-15T01:15:22;5.80;99.90
63313;DHT22;49442;45.640;13.812;2024-01-15T01:17:48;5.70;99.90
63313;DHT22;49442;45.640;13.812;2024-01-15T01:20:13;5.70;99.90
63313;DHT22;49442;45.640;13.812;2024-01-15T01:22:40;5.70;99.90
63313;DHT22;49442;45.640;13.812;2024-01-15T01:25:06;5.70;99.90
63313;DHT22;49442;45.640;13.812;2024-01-15T01:27:32;5.70;99.90
63313;DHT22;49442;45.640;13.812;2024-01-15T01:29:58;5.70;99.90
63313;DHT22;49442;45.640;13.812;2024-01-15T01:32:24;5.70;99.90
63313;DHT22;49442;45.640;13.812;2024-01-15T01:34:50;5.80;99.90
63313;DHT22;49442;45.640;13.812;2024-01-15T01:37:15;5.80;99.90
63313;DHT22;49442;45.640;13.812;2024-01-15T01:39:42;5.80;99.90
63313;DHT22;49442;45.640;13.812;2024-01-15T01:42:08;5.80;99.90
63313;DHT22;49442;45.640;13.812;2024-01-15T01:44:34;5.80;99.90
63313;DHT22;49442;45.640;13.812;2024-01-15T01:47:00;5.70;99.90
63313;DHT22;49442;45.640;13.812;2024-01-15T01:49:29;5.70;99.90
63313;DHT22;49442;45.640;13.812;2024-01-15T01:51:57;5.70;99.90
63313;DHT22;49442;45.640;13.812;2024-01-15T01:54:25;5.70;99.90
63313;DHT22;49442;45.640;13.812;2024-01-15T01:56:52;5.80;99.90
63313;DHT22;49442;45.640;13.812;2024-01-15T01:59:18;5.80;99.90
63313;DHT22;49442;45.640;13.812;2024-01-15T02:01:44;5.70;99.90
63313;DHT22;49442;45.640;13.812;2024-01-15T02:04:11;5.70;99.90
63313;DHT22;49442;45.640;13.812;2024-01-15T02:06:37;5.70;99.90
63313;DHT22;49442;45.640;13.812;2024-01-15T02:09:03;5.80;99.90
63313;DHT22;49442;45.640;13.812;2024-01-15T02:11:31;5.70;99.90
63313;DHT22;49442;45.640;13.812;2024-01-15T02:13:57;5.80;99.90
63313;DHT22;49442;45.640;13.812;2024-01-15T02:16:22;5.80;99.90
63313;DHT22;49442;45.640;13.812;2024-01-15T02:18:48;5.80;99.90
63313;DHT22;49442;45.640;13.812;2024-01-15T02:21:14;5.80;99.90
63313;DHT22;49442;45.640;13.812;2024-01-15T02:23:39;5.80;99.90
63313;DHT22;49442;45.640;13.812;2024-01-15T02:26:06;5.80;99.90
63313;DHT22;49442;45.640;13.812;2024-01-15T02:28:33;5.80;99.90
63313;DHT22;49442;45.640;13.812;2024-01-15T02:30:59;5.80;99.90
63313;DHT22;49442;45.640;13.812;2024-01-15T02:33:25;5.70;99.90
63313;DHT22;49442;45.640;13.812;2024-01-15T02:35:51;5.70;99.90
63313;DHT22;49442;45.640;13.812;2024-01-15T02:38:17;5.70;99.90
63313;DHT22;49442;45.640;13.812;2024-01-15T02:40:44;5.70;99.90
63313;DHT22;49442;45.640;13.812;2024-01-15T02:43:10;5.70;99.90
63313;DHT22;49442;45.640;13.812;2024-01-15T02:45:36;5.70;99.90
63313;DHT22;49442;45.640;13.812;2024-01-15T02:48:02;5.70;99.90
63313;DHT22;49442;45.640;13.812;2024-01-15T02:50:27;5.70;99.90
63313;DHT22;49442;45.640;13.812;2024-01-15T02:52:53;5.70;99.90
63313;DHT22;49442;45.640;13.812;2024-01-15T02:55:19;5.70;99.90
63313;DHT22;49442;45.640;13.812;2024-01-15T02:57:44;5.70;99.90
63313;DHT22;49442;45.640;13.812;2024-01-15T03:00:10;5.80;99.90
63313;DHT22;49442;45.640;13.812;2024-01-15T03:02:37;5.70;99.90
63313;DHT22;49442;45.640;13.812;2024-01-15T03:05:11;5.80;99.90
63313;DHT22;49442;45.640;13.812;2024-01-15T03:07:37;5.80;99.90
63313;DHT22;49442;45.640;13.812;2024-01-15T03:10:03;5.80;99.90
63313;DHT22;49442;45.640;13.812;2024-01-15T03:12:28;5.80;99.90
63313;DHT22;49442;45.640;13.812;2024-01-15T03:14:54;5.80;99.90
63313;DHT22;49442;45.640;13.812;2024-01-15T03:17:20;5.80;99.90
63313;DHT22;49442;45.640;13.812;2024-01-15T03:19:46;5.80;99.90
63313;DHT22;49442;45.640;13.812;2024-01-15T03:22:11;5.90;99.90
63313;DHT22;49442;45.640;13.812;2024-01-15T03:24:37;5.90;99.90
63313;DHT22;49442;45.640;13.812;2024-01-15T03:27:03;5.80;99.90
63313;DHT22;49442;45.640;13.812;2024-01-15T03:29:29;5.90;99.90
63313;DHT22;49442;45.640;13.812;2024-01-15T03:31:55;5.80;99.90
63313;DHT22;49442;45.640;13.812;2024-01-15T03:34:20;5.90;99.90
63313;DHT22;49442;45.640;13.812;2024-01-15T03:36:46;5.90;99.90
63313;DHT22;49442;45.640;13.812;2024-01-15T03:39:12;5.90;99.90
63313;DHT22;49442;45.640;13.812;2024-01-15T03:41:37;5.90;99.90
63313;DHT22;49442;45.640;13.812;2024-01-15T03:44:03;5.90;99.90
63313;DHT22;49442;45.640;13.812;2024-01-15T03:46:29;5.90;99.90
63313;DHT22;49442;45.640;13.812;2024-01-15T03:48:55;5.90;99.90
63313;DHT22;49442;45.640;13.812;2024-01-15T03:51:20;5.90;99.90
63313;DHT22;49442;45.640;13.812;2024-01-15T03:53:46;5.90;99.90
63313;DHT22;49442;45.640;13.812;2024-01-15T03:56:12;5.90;99.90
63313;DHT22;49442;45.640;13.812;2024-01-15T03:58:38;6.00;99.90
63313;DHT22;49442;45.640;13.812;2024-01-15T04:01:03;6.00;99.90
63313;DHT22;49442;45.640;13.812;2024-01-15T04:03:29;6.00;99.90
63313;DHT22;49442;45.640;13.812;2024-01-15T04:05:55;6.00;99.90
63313;DHT22;49442;45.640;13.812;2024-01-15T04:08:20;6.00;99.90
63313;DHT22;49442;45.640;13.812;2024-01-15T04:10:46;6.00;99.90
63313;DHT22;49442;45.640;13.812;2024-01-15T04:13:12;6.10;99.90
63313;DHT22;49442;45.640;13.812;2024-01-15T04:15:37;6.00;99.90
63313;DHT22;49442;45.640;13.812;2024-01-15T04:18:03;6.00;99.90
63313;DHT22;49442;45.640;13.812;2024-01-15T04:20:29;6.00;99.90
63313;DHT22;49442;45.640;13.812;2024-01-15T04:22:55;6.00;99.90
63313;DHT22;49442;45.640;13.812;2024-01-15T04:25:20;6.00;99.90
63313;DHT22;49442;45.640;13.812;2024-01-15T04:27:46;6.00;99.90
63313;DHT22;49442;45.640;13.812;2024-01-15T04:30:12;6.00;99.90
63313;DHT22;49442;45.640;13.812;2024-01-15T04:32:38;5.90;99.90
63313;DHT22;49442;45.640;13.812;2024-01-15T04:35:04;5.90;99.90
63313;DHT22;49442;45.640;13.812;2024-01-15T04:37:29;6.00;99.90
63313;DHT22;49442;45.640;13.812;2024-01-15T04:39:55;6.00;99.90
63313;DHT22;49442;45.640;13.812;2024-01-15T04:42:22;6.00;99.90
63313;DHT22;49442;45.640;13.812;2024-01-15T04:44:48;6.10;99.90
63313;DHT22;49442;45.640;13.812;2024-01-15T04:47:14;6.10;99.90
63313;DHT22;49442;45.640;13.812;2024-01-15T04:49:40;6.10;99.90
63313;DHT22;49442;45.640;13.812;2024-01-15T04:52:05;6.10;99.90
63313;DHT22;49442;45.640;13.812;2024-01-15T04:54:31;6.10;99.90
63313;DHT22;49442;45.640;13.812;2024-01-15T04:56:57;6.00;99.90
63313;DHT22;49442;45.640;13.812;2024-01-15T04:59:23;6.10;99.90
63313;DHT22;49442;45.640;13.812;2024-01-15T05:01:48;6.10;99.90
63313;DHT22;49442;45.640;13.812;2024-01-15T05:04:14;6.10;99.90
63313;DHT22;49442;45.640;13.812;2024-01-15T05:06:40;6.10;99.90
63313;DHT22;49442;45.640;13.812;2024-01-15T05:09:06;6.10;99.90
63313;DHT22;49442;45.640;13.812;2024-01-15T05:11:32;6.10;99.90
63313;DHT22;49442;45.640;13.812;2024-01-15T05:13:58;6.10;99.90
63313;DHT22;49442;45.640;13.812;2024-01-15T05:16:24;6.10;99.90
63313;DHT22;49442;45.640;13.812;2024-01-15T05:18:49;6.10;99.90
63313;DHT22;49442;45.640;13.812;2024-01-15T05:21:15;6.10;99.90
63313;DHT22;49442;45.640;13.812;2024-01-15T05:23:41;6.10;99.90
63313;DHT22;49442;45.640;13.812;2024-01-15T05:26:07;6.10;99.90
63313;DHT22;49442;45.640;13.812;2024-01-15T05:28:34;6.10;99.90
63313;DHT22;49442;45.640;13.812;2024-01-15T05:31:00;6.10;99.90
63313;DHT22;49442;45.640;13.812;2024-01-15T05:33:26;6.00;99.90
63313;DHT22;49442;45.640;13.812;2024-01-15T05:35:51;6.10;99.90
63313;DHT22;49442;45.640;13.812;2024-01-15T05:38:18;6.10;99.90
63313;DHT22;49442;45.640;13.812;2024-01-15T05:40:44;6.10;99.90
63313;DHT22;49442;45.640;13.812;2024-01-15T05:43:10;6.10;99.90
63313;DHT22;49442;45.640;13.812;2024-01-15T05:45:37;6.10;99.90
63313;DHT22;49442;45.640;13.812;2024-01-15T05:48:03;6.10;99.90
63313;DHT22;49442;45.640;13.812;2024-01-15T05:50:29;6.10;99.90
63313;DHT22;49442;45.640;13.812;2024-01-15T05:52:55;6.10;99.90
63313;DHT22;49442;45.640;13.812;2024-01-15T05:55:20;6.10;99.90
63313;DHT22;49442;45.640;13.812;2024-01-15T05:57:46;6.10;99.90
63313;DHT22;49442;45.640;13.812;2024-01-15T06:00:12;6.10;99.90
63313;DHT22;49442;45.640;13.812;2024-01-15T06:02:38;6.10;99.90
63313;DHT22;49442;45.640;13.812;2024-01-15T06:05:05;6.10;99.90
63313;DHT22;49442;45.640;13.812;2024-01-15T06:07:33;6.10;99.90
63313;DHT22;49442;45.640;13.812;2024-01-15T06:09:59;6.10;99.90
63313;DHT22;49442;45.640;13.812;2024-01-15T06:12:25;6.10;99.90
63313;DHT22;49442;45.640;13.812;2024-01-15T06:14:50;6.10;99.90
63313;DHT22;49442;45.640;13.812;2024-01-15T06:17:16;6.20;99.90
63313;DHT22;49442;45.640;13.812;2024-01-15T06:19:42;6.20;99.90
63313;DHT22;49442;45.640;13.812;2024-01-15T06:22:07;6.20;99.90
63313;DHT22;49442;45.640;13.812;2024-01-15T06:24:33;6.10;99.90
63313;DHT22;49442;45.640;13.812;2024-01-15T06:26:59;6.20;99.90
63313;DHT22;49442;45.640;13.812;2024-01-15T06:29:26;6.10;99.90
63313;DHT22;49442;45.640;13.812;2024-01-15T06:31:52;6.20;99.90
63313;DHT22;49442;45.640;13.812;2024-01-15T06:34:18;6.20;99.90
63313;DHT22;49442;45.640;13.812;2024-01-15T06:36:44;6.20;99.90
63313;DHT22;49442;45.640;13.812;2024-01-15T06:39:10;6.20;99.90
63313;DHT22;49442;45.640;13.812;2024-01-15T06:41:36;6.20;99.90
63313;DHT22;49442;45.640;13.812;2024-01-15T06:44:11;6.20;99.90
63313;DHT22;49442;45.640;13.812;2024-01-15T06:46:37;6.20;99.90
63313;DHT22;49442;45.640;13.812;2024-01-15T06:49:02;6.20;99.90
63313;DHT22;49442;45.640;13.812;2024-01-15T06:51:29;6.20;99.90
63313;DHT22;49442;45.640;13.812;2024-01-15T06:53:55;6.20;99.90
63313;DHT22;49442;45.640;13.812;2024-01-15T06:56:21;6.20;99.90
63313;DHT22;49442;45.640;13.812;2024-01-15T06:58:46;6.20;99.90
63313;DHT22;49442;45.640;13.812;2024-01-15T07:01:12;6.10;99.90
63313;DHT22;49442;45.640;13.812;2024-01-15T07:03:38;6.10;99.90
63313;DHT22;49442;45.640;13.812;2024-01-15T07:06:04;6.10;99.90
63313;DHT22;49442;45.640;13.812;2024-01-15T07:08:29;6.10;99.90
63313;DHT22;49442;45.640;13.812;2024-01-15T07:10:55;6.10;99.90
63313;DHT22;49442;45.640;13.812;2024-01-15T07:13:21;6.10;99.90
63313;DHT22;49442;45.640;13.812;2024-01-15T07:15:47;6.10;99.90
63313;DHT22;49442;45.640;13.812;2024-01-15T07:18:12;6.20;99.90
63313;DHT22;49442;45.640;13.812;2024-01-15T07:20:38;6.20;99.90
63313;DHT22;49442;45.640;13.812;2024-01-15T07:23:04;6.20;99.90
63313;DHT22;49442;45.640;13.812;2024-01-15T07:25:29;6.20;99.90
63313;DHT22;49442;45.640;13.812;2024-01-15T07:27:55;6.20;99.90
63313;DHT22;49442;45.640;13.812;2024-01-15T07:30:21;6.30;99.90
63313;DHT22;49442;45.640;13.812;2024-01-15T07:32:47;6.30;99.90
63313;DHT22;49442;45.640;13.812;2024-01-15T07:35:15;6.30;99.90
63313;DHT22;49442;45.640;13.812;2024-01-15T07:37:41;6.20;99.90
63313;DHT22;49442;45.640;13.812;2024-01-15T07:40:07;6.30;99.90
63313;DHT22;49442;45.640;13.812;2024-01-15T07:42:34;6.30;99.90
63313;DHT22;49442;45.640;13.812;2024-01-15T07:45:00;6.30;99.90
63313;DHT22;49442;45.640;13.812;2024-01-15T07:47:26;6.40;99.90
63313;DHT22;49442;45.640;13.812;2024-01-15T07:49:53;6.40;99.90
63313;DHT22;49442;45.640;13.812;2024-01-15T07:52:19;6.50;99.90
63313;DHT22;49442;45.640;13.812;2024-01-15T07:54:45;6.50;99.90
63313;DHT22;49442;45.640;13.812;2024-01-15T07:57:11;6.60;99.90
63313;DHT22;49442;45.640;13.812;2024-01-15T07:59:36;6.50;99.90
63313;DHT22;49442;45.640;13.812;2024-01-15T08:02:02;6.60;99.90
63313;DHT22;49442;45.640;13.812;2024-01-15T08:04:28;6.70;99.90
63313;DHT22;49442;45.640;13.812;2024-01-15T08:06:54;6.70;99.90
63313;DHT22;49442;45.640;13.812;2024-01-15T08:09:20;6.80;99.90
63313;DHT22;49442;45.640;13.812;2024-01-15T08:11:45;6.90;99.90
63313;DHT22;49442;45.640;13.812;2024-01-15T08:14:11;7.00;99.90
63313;DHT22;49442;45.640;13.812;2024-01-15T08:16:38;7.10;99.90
63313;DHT22;49442;45.640;13.812;2024-01-15T08:19:04;7.10;99.90
63313;DHT22;49442;45.640;13.812;2024-01-15T08:21:31;7.20;99.90
63313;DHT22;49442;45.640;13.812;2024-01-15T08:24:01;7.30;99.90
63313;DHT22;49442;45.640;13.812;2024-01-15T08:26:28;7.30;99.90
63313;DHT22;49442;45.640;13.812;2024-01-15T08:28:53;7.30;99.90
63313;DHT22;49442;45.640;13.812;2024-01-15T08:31:19;7.40;99.90
63313;DHT22;49442;45.640;13.812;2024-01-15T08:33:45;7.40;99.90
63313;DHT22;49442;45.640;13.812;2024-01-15T08:36:11;7.40;99.90
63313;DHT22;49442;45.640;13.812;2024-01-15T08:38:37;7.50;99.90
63313;DHT22;49442;45.640;13.812;2024-01-15T08:41:03;7.50;99.90
63313;DHT22;49442;45.640;13.812;2024-01-15T08:43:28;7.50;99.90
63313;DHT22;49442;45.640;13.812;2024-01-15T08:45:56;7.40;99.90
63313;DHT22;49442;45.640;13.812;2024-01-15T08:48:22;7.40;99.90
63313;DHT22;49442;45.640;13.812;2024-01-15T08:50:48;7.40;99.90
63313;DHT22;49442;45.640;13.812;2024-01-15T08:53:14;7.40;99.90
63313;DHT22;49442;45.640;13.812;2024-01-15T08:55:40;7.40;99.90
63313;DHT22;49442;45.640;13.812;2024-01-15T08:58:08;7.40;99.90
63313;DHT22;49442;45.640;13.812;2024-01-15T09:00:34;7.40;99.90
63313;DHT22;49442;45.640;13.812;2024-01-15T09:03:00;7.50;99.90
63313;DHT22;49442;45.640;13.812;2024-01-15T09:05:25;7.50;99.90
63313;DHT22;49442;45.640;13.812;2024-01-15T09:07:51;7.50;99.90
63313;DHT22;49442;45.640;13.812;2024-01-15T09:10:19;7.50;99.90
63313;DHT22;49442;45.640;13.812;2024-01-15T09:12:45;7.50;99.90
63313;DHT22;49442;45.640;13.812;2024-01-15T09:15:11;7.60;99.90
63313;DHT22;49442;45.640;13.812;2024-01-15T09:17:37;7.60;99.90
63313;DHT22;49442;45.640;13.812;2024-01-15T09:20:03;7.60;99.90
63313;DHT22;49442;45.640;13.812;2024-01-15T09:22:32;7.60;99.90
63313;DHT22;49442;45.640;13.812;2024-01-15T09:24:58;7.60;99.90
63313;DHT22;49442;45.640;13.812;2024-01-15T09:27:24;7.70;99.90
63313;DHT22;49442;45.640;13.812;2024-01-15T09:29:52;7.60;99.90
63313;DHT22;49442;45.640;13.812;2024-01-15T09:32:17;7.60;99.90
63313;DHT22;49442;45.640;13.812;2024-01-15T09:34:44;7.60;99.90
63313;DHT22;49442;45.640;13.812;2024-01-15T09:37:11;7.70;99.90
63313;DHT22;49442;45.640;13.812;2024-01-15T09:39:37;7.70;99.90
63313;DHT22;49442;45.640;13.812;2024-01-15T09:42:04;7.80;99.90
63313;DHT22;49442;45.640;13.812;2024-01-15T09:44:31;7.80;99.90
63313;DHT22;49442;45.640;13.812;2024-01-15T09:46:57;7.80;99.90
63313;DHT22;49442;45.640;13.812;2024-01-15T09:49:23;7.80;99.90
63313;DHT22;49442;45.640;13.812;2024-01-15T09:51:49;7.80;99.90
63313;DHT22;49442;45.640;13.812;2024-01-15T09:54:15;7.80;99.90
63313;DHT22;49442;45.640;13.812;2024-01-15T09:56:45;7.90;99.90
63313;DHT22;49442;45.640;13.812;2024-01-15T09:59:16;7.90;99.90
63313;DHT22;49442;45.640;13.812;2024-01-15T10:01:43;7.90;99.90
63313;DHT22;49442;45.640;13.812;2024-01-15T10:04:10;7.90;99.90
63313;DHT22;49442;45.640;13.812;2024-01-15T10:06:37;7.90;99.90
63313;DHT22;49442;45.640;13.812;2024-01-15T10:09:05;7.90;99.90
63313;DHT22;49442;45.640;13.812;2024-01-15T10:11:30;7.90;99.90
63313;DHT22;49442;45.640;13.812;2024-01-15T10:13:57;7.80;99.90
63313;DHT22;49442;45.640;13.812;2024-01-15T10:16:23;7.80;99.90
63313;DHT22;49442;45.640;13.812;2024-01-15T10:18:49;7.70;99.90
63313;DHT22;49442;45.640;13.812;2024-01-15T10:21:15;7.70;99.90
63313;DHT22;49442;45.640;13.812;2024-01-15T10:23:41;7.70;99.90
63313;DHT22;49442;45.640;13.812;2024-01-15T10:26:07;7.70;99.90
63313;DHT22;49442;45.640;13.812;2024-01-15T10:28:33;7.70;99.90
63313;DHT22;49442;45.640;13.812;2024-01-15T10:30:59;7.60;99.90
63313;DHT22;49442;45.640;13.812;2024-01-15T10:33:26;7.60;99.90
63313;DHT22;49442;45.640;13.812;2024-01-15T10:35:56;7.70;99.90
63313;DHT22;49442;45.640;13.812;2024-01-15T10:38:23;7.60;99.90
63313;DHT22;49442;45.640;13.812;2024-01-15T10:40:53;7.60;99.90
63313;DHT22;49442;45.640;13.812;2024-01-15T10:43:19;7.60;99.90
63313;DHT22;49442;45.640;13.812;2024-01-15T10:45:46;7.60;99.90
63313;DHT22;49442;45.640;13.812;2024-01-15T10:48:12;7.60;99.90
63313;DHT22;49442;45.640;13.812;2024-01-15T10:50:38;7.50;99.90
63313;DHT22;49442;45.640;13.812;2024-01-15T10:53:04;7.60;99.90
63313;DHT22;49442;45.640;13.812;2024-01-15T10:55:33;7.60;99.90
63313;DHT22;49442;45.640;13.812;2024-01-15T10:58:01;7.60;99.90
63313;DHT22;49442;45.640;13.812;2024-01-15T11:00:29;7.60;99.90
63313;DHT22;49442;45.640;13.812;2024-01-15T11:02:55;7.60;99.90
63313;DHT22;49442;45.640;13.812;2024-01-15T11:05:22;7.60;99.90
63313;DHT22;49442;45.640;13.812;2024-01-15T11:07:54;7.60;99.90
63313;DHT22;49442;45.640;13.812;2024-01-15T11:10:46;7.60;99.90
63313;DHT22;49442;45.640;13.812;2024-01-15T11:13:19;7.60;99.90
63313;DHT22;49442;45.640;13.812;2024-01-15T11:18:33;7.60;99.90
63313;DHT22;49442;45.640;13.812;2024-01-15T11:23:48;7.60;99.90
63313;DHT22;49442;45.640;13.812;2024-01-15T11:28:59;7.50;99.90
63313;DHT22;49442;45.640;13.812;2024-01-15T11:34:07;7.60;99.90
63313;DHT22;49442;45.640;13.812;2024-01-15T11:42:02;7.50;99.90
63313;DHT22;49442;45.640;13.812;2024-01-15T11:44:31;7.40;99.90
63313;DHT22;49442;45.640;13.812;2024-01-15T11:46:57;7.40;99.90
63313;DHT22;49442;45.640;13.812;2024-01-15T11:52:11;7.40;99.90
63313;DHT22;49442;45.640;13.812;2024-01-15T11:54:38;7.40;99.90
63313;DHT22;49442;45.640;13.812;2024-01-15T11:57:12;7.40;99.90
63313;DHT22;49442;45.640;13.812;2024-01-15T11:59:39;7.40;99.90
63313;DHT22;49442;45.640;13.812;2024-01-15T12:02:05;7.40;99.90
63313;DHT22;49442;45.640;13.812;2024-01-15T12:04:31;7.40;99.90
63313;DHT22;49442;45.640;13.812;2024-01-15T12:06:56;7.40;99.90
63313;DHT22;49442;45.640;13.812;2024-01-15T12:09:22;7.40;99.90
63313;DHT22;49442;45.640;13.812;2024-01-15T12:11:57;7.40;99.90
63313;DHT22;49442;45.640;13.812;2024-01-15T12:14:26;7.40;99.90
63313;DHT22;49442;45.640;13.812;2024-01-15T12:16:54;7.50;99.90
63313;DHT22;49442;45.640;13.812;2024-01-15T12:19:20;7.40;99.90
63313;DHT22;49442;45.640;13.812;2024-01-15T12:21:46;7.40;99.90
63313;DHT22;49442;45.640;13.812;2024-01-15T12:24:12;7.40;99.90
63313;DHT22;49442;45.640;13.812;2024-01-15T12:26:38;7.40;99.90
63313;DHT22;49442;45.640;13.812;2024-01-15T12:29:06;7.40;99.90
63313;DHT22;49442;45.640;13.812;2024-01-15T12:31:32;7.30;99.90
63313;DHT22;49442;45.640;13.812;2024-01-15T12:33:58;7.40;99.90
63313;DHT22;49442;45.640;13.812;2024-01-15T12:36:23;7.30;99.90
63313;DHT22;49442;45.640;13.812;2024-01-15T12:38:49;7.40;99.90
63313;DHT22;49442;45.640;13.812;2024-01-15T12:41:15;7.40;99.90
63313;DHT22;49442;45.640;13.812;2024-01-15T12:43:41;7.40;99.90
63313;DHT22;49442;45.640;13.812;2024-01-15T12:46:07;7.50;99.90
63313;DHT22;49442;45.640;13.812;2024-01-15T12:48:32;7.40;99.90
63313;DHT22;49442;45.640;13.812;2024-01-15T12:50:58;7.40;99.90
63313;DHT22;49442;45.640;13.812;2024-01-15T12:53:24;7.40;99.90
63313;DHT22;49442;45.640;13.812;2024-01-15T12:55:49;7.40;99.90
63313;DHT22;49442;45.640;13.812;2024-01-15T12:58:15;7.40;99.90
63313;DHT22;49442;45.640;13.812;2024-01-15T13:00:40;7.50;99.90
63313;DHT22;49442;45.640;13.812;2024-01-15T13:03:07;7.50;99.90
63313;DHT22;49442;45.640;13.812;2024-01-15T13:05:32;7.50;99.90
63313;DHT22;49442;45.640;13.812;2024-01-15T13:07:59;7.50;99.90
63313;DHT22;49442;45.640;13.812;2024-01-15T13:10:25;7.50;99.90
63313;DHT22;49442;45.640;13.812;2024-01-15T13:12:51;7.50;99.90
63313;DHT22;49442;45.640;13.812;2024-01-15T13:15:16;7.60;99.90
63313;DHT22;49442;45.640;13.812;2024-01-15T13:17:43;7.60;99.90
63313;DHT22;49442;45.640;13.812;2024-01-15T13:20:09;7.60;99.90
63313;DHT22;49442;45.640;13.812;2024-01-15T13:22:36;7.60;99.90
63313;DHT22;49442;45.640;13.812;2024-01-15T13:25:04;7.60;99.90
63313;DHT22;49442;45.640;13.812;2024-01-15T13:27:32;7.60;99.90
63313;DHT22;49442;45.640;13.812;2024-01-15T13:30:00;7.60;99.90
63313;DHT22;49442;45.640;13.812;2024-01-15T13:32:27;7.60;99.90
63313;DHT22;49442;45.640;13.812;2024-01-15T13:34:57;7.60;99.90
63313;DHT22;49442;45.640;13.812;2024-01-15T13:37:23;7.50;99.90
63313;DHT22;49442;45.640;13.812;2024-01-15T13:39:50;7.60;99.90
63313;DHT22;49442;45.640;13.812;2024-01-15T13:42:18;7.60;99.90
63313;DHT22;49442;45.640;13.812;2024-01-15T13:44:43;7.50;99.90
63313;DHT22;49442;45.640;13.812;2024-01-15T13:47:09;7.50;99.90
63313;DHT22;49442;45.640;13.812;2024-01-15T13:49:35;7.50;99.90
63313;DHT22;49442;45.640;13.812;2024-01-15T13:52:02;7.50;99.90
63313;DHT22;49442;45.640;13.812;2024-01-15T13:54:29;7.50;99.90
63313;DHT22;49442;45.640;13.812;2024-01-15T13:56:55;7.50;99.90
63313;DHT22;49442;45.640;13.812;2024-01-15T13:59:21;7.50;99.90
63313;DHT22;49442;45.640;13.812;2024-01-15T14:01:48;7.50;99.90
63313;DHT22;49442;45.640;13.812;2024-01-15T14:04:14;7.50;99.90
63313;DHT22;49442;45.640;13.812;2024-01-15T14:06:39;7.50;99.90
63313;DHT22;49442;45.640;13.812;2024-01-15T14:09:05;7.50;99.90
63313;DHT22;49442;45.640;13.812;2024-01-15T14:11:31;7.50;99.90
63313;DHT22;49442;45.640;13.812;2024-01-15T14:13:57;7.40;99.90
63313;DHT22;49442;45.640;13.812;2024-01-15T14:16:22;7.40;99.90
63313;DHT22;49442;45.640;13.812;2024-01-15T14:18:48;7.40;99.90
63313;DHT22;49442;45.640;13.812;2024-01-15T14:21:14;7.30;99.90
63313;DHT22;49442;45.640;13.812;2024-01-15T14:23:40;7.30;99.90
63313;DHT22;49442;45.640;13.812;2024-01-15T14:26:06;7.30;99.90
63313;DHT22;49442;45.640;13.812;2024-01-15T14:28:31;7.30;99.90
63313;DHT22;49442;45.640;13.812;2024-01-15T14:30:57;7.30;99.90
63313;DHT22;49442;45.640;13.812;2024-01-15T14:33:26;7.20;99.90
63313;DHT22;49442;45.640;13.812;2024-01-15T14:35:52;7.20;99.90
63313;DHT22;49442;45.640;13.812;2024-01-15T14:38:18;7.20;99.90
63313;DHT22;49442;45.640;13.812;2024-01-15T14:40:44;7.20;99.90
63313;DHT22;49442;45.640;13.812;2024-01-15T14:43:10;7.20;99.90
63313;DHT22;49442;45.640;13.812;2024-01-15T14:45:36;7.20;99.90
63313;DHT22;49442;45.640;13.812;2024-01-15T14:48:02;7.10;99.90
63313;DHT22;49442;45.640;13.812;2024-01-15T14:50:27;7.10;99.90
63313;DHT22;49442;45.640;13.812;2024-01-15T14:52:53;7.10;99.90
63313;DHT22;49442;45.640;13.812;2024-01-15T14:55:19;7.10;99.90
63313;DHT22;49442;45.640;13.812;2024-01-15T14:57:45;7.10;99.90
63313;DHT22;49442;45.640;13.812;2024-01-15T15:00:11;7.10;99.90
63313;DHT22;49442;45.640;13.812;2024-01-15T15:02:39;7.10;99.90
63313;DHT22;49442;45.640;13.812;2024-01-15T15:05:05;7.00;99.90
63313;DHT22;49442;45.640;13.812;2024-01-15T15:07:30;7.00;99.90
63313;DHT22;49442;45.640;13.812;2024-01-15T15:09:56;7.10;99.90
63313;DHT22;49442;45.640;13.812;2024-01-15T15:12:22;7.00;99.90
63313;DHT22;49442;45.640;13.812;2024-01-15T15:14:48;6.90;99.90
63313;DHT22;49442;45.640;13.812;2024-01-15T15:17:13;6.90;99.90
63313;DHT22;49442;45.640;13.812;2024-01-15T15:19:39;6.90;99.90
63313;DHT22;49442;45.640;13.812;2024-01-15T15:22:06;6.90;99.90
63313;DHT22;49442;45.640;13.812;2024-01-15T15:24:36;6.80;99.90
63313;DHT22;49442;45.640;13.812;2024-01-15T15:27:02;6.80;99.90
63313;DHT22;49442;45.640;13.812;2024-01-15T15:29:28;6.80;99.90
63313;DHT22;49442;45.640;13.812;2024-01-15T15:31:54;6.80;99.90
63313;DHT22;49442;45.640;13.812;2024-01-15T15:34:20;6.70;99.90
63313;DHT22;49442;45.640;13.812;2024-01-15T15:36:48;6.70;99.90
63313;DHT22;49442;45.640;13.812;2024-01-15T15:39:14;6.80;99.90
63313;DHT22;49442;45.640;13.812;2024-01-15T15:41:44;6.80;99.90
63313;DHT22;49442;45.640;13.812;2024-01-15T15:44:10;6.80;99.90